Time;durP1;ratioP1;P1;durP2;ratioP2;P2;SDS_P1;SDS_P2;PMS_P1;PMS_P2;Temp;Humidity;BMP_temperature;BMP_pressure;BME280_temperature;BME280_humidity;BME280_pressure;Samples;Min_cycle;Max_cycle;Signal;HPM_P1;HPM_P2
2021/05/20 00:01:32;;;;;;;9.83;8.07;;;;;;;;;;5034565;28;20165;-82
2021/05/20 00:03:58;;;;;;;12.23;8.57;;;;;;;;;;5035072;28;20219;-82
2021/05/20 00:06:25;;;;;;;13.47;9.57;;;;;;;;;;5034921;28;20169;-82
2021/05/20 00:08:50;;;;;;;14.80;9.47;;;;;;;;;;5034365;28;20246;-82
2021/05/20 00:11:15;;;;;;;12.57;8.23;;;;;;;;;;5033949;28;20168;-82
2021/05/20 00:13:41;;;;;;;14.77;9.50;;;;;;;;;;5038479;28;20290;-82
2021/05/20 00:16:06;;;;;;;10.67;8.50;;;;;;;;;;5054145;28;20164;-82
2021/05/20 00:18:31;;;;;;;13.07;8.60;;;;;;;;;;5054731;28;20189;-82
2021/05/20 00:20:57;;;;;;;13.90;8.80;;;;;;;;;;5054074;28;20250;-82
2021/05/20 00:23:22;;;;;;;10.40;7.70;;;;;;;;;;5054010;28;20195;-82
2021/05/20 00:25:47;;;;;;;11.57;7.70;;;;;;;;;;5053655;28;20191;-82
2021/05/20 00:28:13;;;;;;;11.00;8.00;;;;;;;;;;5039644;28;20263;-82
2021/05/20 00:30:38;;;;;;;13.07;9.13;;;;;;;;;;5034021;28;20613;-82
2021/05/20 00:33:03;;;;;;;11.30;8.17;;;;;;;;;;5033632;28;20199;-82
2021/05/20 00:35:29;;;;;;;9.43;7.40;;;;;;;;;;5033666;28;20172;-82
2021/05/20 00:37:54;;;;;;;10.10;7.33;;;;;;;;;;5033945;28;20571;-82
2021/05/20 00:40:19;;;;;;;10.83;8.33;;;;;;;;;;5034248;28;20679;-82
2021/05/20 00:42:45;;;;;;;12.27;9.17;;;;;;;;;;5034166;28;20223;-82
2021/05/20 00:45:10;;;;;;;10.27;8.23;;;;;;;;;;5033783;28;20219;-82
2021/05/20 00:47:36;;;;;;;9.53;7.70;;;;;;;;;;5033515;28;20165;-82
2021/05/20 00:50:03;;;;;;;9.70;7.53;;;;;;;;;;5033825;28;20173;-82
2021/05/20 00:52:30;;;;;;;7.93;6.47;;;;;;;;;;5040093;28;20172;-82
2021/05/20 00:54:56;;;;;;;7.97;6.87;;;;;;;;;;5053636;28;20259;-82
2021/05/20 00:57:21;;;;;;;9.03;6.87;;;;;;;;;;5053593;28;20655;-82
2021/05/20 00:59:50;;;;;;;7.70;6.93;;;;;;;;;;5053584;28;20198;-82
2021/05/20 01:02:16;;;;;;;10.97;7.27;;;;;;;;;;5053409;28;20179;-82
2021/05/20 01:04:41;;;;;;;9.00;6.73;;;;;;;;;;5053888;28;20513;-82
2021/05/20 01:07:07;;;;;;;7.23;6.53;;;;;;;;;;5053732;28;20205;-83
2021/05/20 01:09:35;;;;;;;8.20;6.77;;;;;;;;;;5053876;28;20310;-83
2021/05/20 01:12:00;;;;;;;7.90;6.87;;;;;;;;;;5053575;28;20199;-83
2021/05/20 01:14:26;;;;;;;7.33;6.43;;;;;;;;;;5053751;28;20230;-83
2021/05/20 01:16:51;;;;;;;8.27;6.70;;;;;;;;;;5053507;28;20175;-83
2021/05/20 01:19:16;;;;;;;8.37;7.47;;;;;;;;;;5053858;28;20182;-83
2021/05/20 01:21:45;;;;;;;8.70;7.63;;;;;;;;;;5053626;28;20171;-83
2021/05/20 01:24:11;;;;;;;8.03;7.23;;;;;;;;;;5055651;28;20271;-82
2021/05/20 01:26:36;;;;;;;8.27;7.47;;;;;;;;;;5057452;28;20596;-83
2021/05/20 01:29:03;;;;;;;9.43;7.73;;;;;;;;;;5057402;28;20206;-83
2021/05/20 01:31:28;;;;;;;9.60;8.17;;;;;;;;;;5056840;28;20314;-83
2021/05/20 01:33:53;;;;;;;9.93;7.83;;;;;;;;;;5057558;28;20287;-83
2021/05/20 01:36:28;;;;;;;10.17;7.97;;;;;;;;;;5057588;28;20596;-83
2021/05/20 01:38:57;;;;;;;9.17;7.43;;;;;;;;;;5057316;28;20179;-84
2021/05/20 01:41:23;;;;;;;9.80;8.07;;;;;;;;;;5057741;28;20652;-84
2021/05/20 01:43:48;;;;;;;10.53;8.43;;;;;;;;;;5057131;28;20263;-84
2021/05/20 01:46:13;;;;;;;9.73;8.10;;;;;;;;;;5057067;28;20338;-84
2021/05/20 01:48:40;;;;;;;9.10;8.20;;;;;;;;;;5057345;28;20255;-84
2021/05/20 01:51:11;;;;;;;10.03;8.20;;;;;;;;;;5057342;28;20175;-84
2021/05/20 01:53:40;;;;;;;9.70;8.43;;;;;;;;;;5056193;28;20265;-84
2021/05/20 01:56:06;;;;;;;9.77;8.53;;;;;;;;;;5057559;28;20255;-84
2021/05/20 01:58:32;;;;;;;10.60;8.80;;;;;;;;;;5057222;28;20200;-84
2021/05/20 02:00:58;;;;;;;9.57;8.37;;;;;;;;;;5057012;28;20202;-84
2021/05/20 02:03:23;;;;;;;9.60;8.57;;;;;;;;;;5056538;28;20700;-84
2021/05/20 02:05:49;;;;;;;11.93;9.70;;;;;;;;;;5056816;28;20168;-84
2021/05/20 02:08:14;;;;;;;10.80;9.00;;;;;;;;;;5056474;28;20230;-84
2021/05/20 02:10:40;;;;;;;9.53;8.13;;;;;;;;;;5056727;28;20620;-84
2021/05/20 02:13:06;;;;;;;10.77;9.20;;;;;;;;;;5056667;28;20195;-84
2021/05/20 02:15:32;;;;;;;10.27;8.93;;;;;;;;;;5056385;28;20179;-84
2021/05/20 02:17:57;;;;;;;12.53;9.03;;;;;;;;;;5056541;28;20254;-84
2021/05/20 02:20:23;;;;;;;10.33;9.03;;;;;;;;;;5056496;28;20187;-84
2021/05/20 02:22:48;;;;;;;10.33;8.73;;;;;;;;;;5056085;28;20179;-83
2021/05/20 02:25:14;;;;;;;10.53;8.87;;;;;;;;;;5056357;28;20188;-84
2021/05/20 02:27:39;;;;;;;11.70;9.33;;;;;;;;;;5056020;28;20170;-84
2021/05/20 02:30:05;;;;;;;11.73;9.23;;;;;;;;;;5056073;28;20312;-84
2021/05/20 02:32:30;;;;;;;12.10;9.80;;;;;;;;;;5056516;28;20172;-83
2021/05/20 02:34:56;;;;;;;11.37;9.80;;;;;;;;;;5054968;28;20172;-83
2021/05/20 02:37:21;;;;;;;12.73;9.63;;;;;;;;;;5055906;28;20195;-84
2021/05/20 02:39:46;;;;;;;11.63;9.90;;;;;;;;;;5056392;28;20179;-82
2021/05/20 02:42:12;;;;;;;11.10;9.90;;;;;;;;;;5056018;28;20523;-82
2021/05/20 02:44:37;;;;;;;10.93;9.47;;;;;;;;;;5056000;28;20184;-82
2021/05/20 02:47:02;;;;;;;12.43;9.73;;;;;;;;;;5055927;28;20168;-82
2021/05/20 02:49:28;;;;;;;14.00;10.37;;;;;;;;;;5056277;28;20213;-82
2021/05/20 02:51:53;;;;;;;11.97;10.27;;;;;;;;;;5055681;28;20199;-82
2021/05/20 02:54:18;;;;;;;12.60;11.03;;;;;;;;;;5055809;28;20613;-82
2021/05/20 02:56:44;;;;;;;12.50;10.40;;;;;;;;;;5055778;28;20175;-82
2021/05/20 02:59:10;;;;;;;16.40;11.47;;;;;;;;;;5056511;28;20179;-82
2021/05/20 03:01:42;;;;;;;14.97;11.33;;;;;;;;;;5055672;28;20186;-82
2021/05/20 03:04:07;;;;;;;11.60;10.23;;;;;;;;;;5055951;28;20171;-82
2021/05/20 03:06:33;;;;;;;12.57;10.70;;;;;;;;;;5056175;28;20609;-82
2021/05/20 03:08:58;;;;;;;14.67;11.17;;;;;;;;;;5056209;28;20221;-82
2021/05/20 03:11:25;;;;;;;12.50;10.60;;;;;;;;;;5055684;28;20163;-82
2021/05/20 03:13:51;;;;;;;11.97;10.77;;;;;;;;;;5055917;28;20636;-82
2021/05/20 03:16:16;;;;;;;13.40;10.77;;;;;;;;;;5055129;28;20179;-82
2021/05/20 03:18:41;;;;;;;12.10;10.83;;;;;;;;;;5055921;28;20167;-82
2021/05/20 03:21:07;;;;;;;13.97;11.73;;;;;;;;;;5055295;28;20179;-82
2021/05/20 03:23:32;;;;;;;12.17;10.87;;;;;;;;;;5055554;28;20179;-83
2021/05/20 03:25:57;;;;;;;13.70;11.47;;;;;;;;;;5054941;28;20196;-83
2021/05/20 03:28:23;;;;;;;11.03;9.93;;;;;;;;;;5055809;28;20171;-83
2021/05/20 03:30:48;;;;;;;11.73;10.53;;;;;;;;;;5054665;28;20251;-83
2021/05/20 03:33:13;;;;;;;11.87;10.60;;;;;;;;;;5055322;28;20295;-83
2021/05/20 03:35:38;;;;;;;10.77;9.67;;;;;;;;;;5054769;28;20179;-83
2021/05/20 03:38:04;;;;;;;11.83;9.87;;;;;;;;;;5054720;28;20536;-83
2021/05/20 03:40:29;;;;;;;12.03;10.73;;;;;;;;;;5055571;28;20176;-83
2021/05/20 03:42:54;;;;;;;12.37;11.07;;;;;;;;;;5054910;28;20650;-83
2021/05/20 03:45:20;;;;;;;11.87;10.60;;;;;;;;;;5055387;28;20261;-83
2021/05/20 03:47:45;;;;;;;11.00;9.87;;;;;;;;;;5053232;28;20178;-83
2021/05/20 03:50:11;;;;;;;11.07;9.87;;;;;;;;;;5054504;28;20168;-83
2021/05/20 03:52:36;;;;;;;13.20;10.33;;;;;;;;;;5054723;28;20218;-83
2021/05/20 03:55:02;;;;;;;10.93;9.50;;;;;;;;;;5054342;28;20175;-83
2021/05/20 03:57:27;;;;;;;11.77;10.17;;;;;;;;;;5054823;28;20180;-83
2021/05/20 03:59:52;;;;;;;12.73;10.40;;;;;;;;;;5054536;28;20263;-83
2021/05/20 04:02:18;;;;;;;10.90;9.80;;;;;;;;;;5055018;28;20559;-83
2021/05/20 04:04:44;;;;;;;10.93;9.83;;;;;;;;;;5054831;28;20174;-83
2021/05/20 04:07:09;;;;;;;11.00;9.90;;;;;;;;;;5054747;28;20682;-83
2021/05/20 04:09:35;;;;;;;11.23;10.03;;;;;;;;;;5054687;28;20172;-84
2021/05/20 04:12:00;;;;;;;11.17;10.07;;;;;;;;;;5054904;28;20262;-83
2021/05/20 04:14:25;;;;;;;10.67;9.67;;;;;;;;;;5054507;28;20203;-83
2021/05/20 04:16:51;;;;;;;11.73;10.10;;;;;;;;;;5054241;28;20263;-84
2021/05/20 04:19:16;;;;;;;9.93;8.93;;;;;;;;;;5054244;28;20171;-84
2021/05/20 04:21:42;;;;;;;9.57;8.57;;;;;;;;;;5054172;28;20196;-84
2021/05/20 04:24:07;;;;;;;9.87;8.97;;;;;;;;;;5053760;28;20650;-84
2021/05/20 04:26:33;;;;;;;10.93;9.10;;;;;;;;;;5053792;28;20684;-84
2021/05/20 04:28:58;;;;;;;12.63;10.17;;;;;;;;;;5053746;28;20499;-83
2021/05/20 04:31:23;;;;;;;11.30;9.87;;;;;;;;;;5054085;28;20224;-83
2021/05/20 04:33:49;;;;;;;9.73;8.80;;;;;;;;;;5053665;28;20655;-83
2021/05/20 04:36:15;;;;;;;9.33;8.40;;;;;;;;;;5053605;28;20290;-83
2021/05/20 04:38:40;;;;;;;9.65;8.80;;;;;;;;;;5054471;28;20302;-83
2021/05/20 04:41:06;;;;;;;9.20;8.35;;;;;;;;;;5054232;28;20643;-84
2021/05/20 04:43:31;;;;;;;9.02;8.05;;;;;;;;;;5053947;28;20182;-84
2021/05/20 04:45:57;;;;;;;8.63;7.82;;;;;;;;;;5054559;28;20247;-84
2021/05/20 04:48:22;;;;;;;8.27;7.47;;;;;;;;;;5054108;28;20601;-84
2021/05/20 04:50:47;;;;;;;8.35;7.60;;;;;;;;;;5054322;28;20241;-84
2021/05/20 04:53:13;;;;;;;8.20;7.40;;;;;;;;;;5053955;28;20203;-84
2021/05/20 04:55:38;;;;;;;8.40;7.70;;;;;;;;;;5053424;28;20269;-84
2021/05/20 04:58:03;;;;;;;8.05;7.45;;;;;;;;;;5052709;28;20671;-84
2021/05/20 05:00:29;;;;;;;7.90;7.30;;;;;;;;;;5053658;28;20167;-84
2021/05/20 05:02:54;;;;;;;7.60;6.97;;;;;;;;;;5053443;28;20168;-84
2021/05/20 05:05:20;;;;;;;7.82;7.18;;;;;;;;;;5053674;28;20168;-84
2021/05/20 05:07:46;;;;;;;7.80;7.20;;;;;;;;;;5053641;28;20527;-84
2021/05/20 05:10:11;;;;;;;8.25;7.47;;;;;;;;;;5053337;28;20250;-83
2021/05/20 05:12:37;;;;;;;7.90;7.20;;;;;;;;;;5053101;28;20262;-84
2021/05/20 05:15:02;;;;;;;7.75;7.15;;;;;;;;;;5053501;28;20176;-83
2021/05/20 05:17:28;;;;;;;7.47;6.88;;;;;;;;;;5053501;28;20650;-83
2021/05/20 05:19:53;;;;;;;7.20;6.70;;;;;;;;;;5053546;28;20179;-83
2021/05/20 05:22:19;;;;;;;7.10;6.60;;;;;;;;;;5053351;28;20176;-83
2021/05/20 05:24:44;;;;;;;7.25;6.75;;;;;;;;;;5053170;28;20651;-83
2021/05/20 05:27:09;;;;;;;6.93;6.43;;;;;;;;;;5053776;28;20180;-83
2021/05/20 05:29:35;;;;;;;6.95;6.43;;;;;;;;;;5053137;28;20623;-83
2021/05/20 05:32:01;;;;;;;7.00;6.40;;;;;;;;;;5053498;28;20668;-83
2021/05/20 05:34:26;;;;;;;7.40;6.80;;;;;;;;;;5053015;28;20532;-83
2021/05/20 05:36:52;;;;;;;7.07;6.40;;;;;;;;;;5053062;28;20171;-83
2021/05/20 05:39:17;;;;;;;6.20;5.70;;;;;;;;;;5053352;28;20567;-82
2021/05/20 05:41:43;;;;;;;6.45;5.88;;;;;;;;;;5053857;28;20171;-83
2021/05/20 05:44:08;;;;;;;5.80;5.30;;;;;;;;;;5052299;28;20188;-83
2021/05/20 05:46:36;;;;;;;5.63;5.22;;;;;;;;;;5053230;28;20226;-83
2021/05/20 05:49:12;;;;;;;5.65;5.35;;;;;;;;;;5053488;28;20171;-83
2021/05/20 05:51:38;;;;;;;5.93;5.43;;;;;;;;;;5053237;28;20163;-83
2021/05/20 05:54:04;;;;;;;5.50;5.10;;;;;;;;;;5053453;28;20195;-83
2021/05/20 05:56:29;;;;;;;5.10;4.70;;;;;;;;;;5053207;28;20167;-83
2021/05/20 05:58:55;;;;;;;5.03;4.63;;;;;;;;;;5053289;28;20183;-83
2021/05/20 06:01:20;;;;;;;4.75;4.35;;;;;;;;;;5053689;28;20175;-83
2021/05/20 06:03:45;;;;;;;5.10;4.60;;;;;;;;;;5052808;28;20607;-83
2021/05/20 06:06:11;;;;;;;5.03;4.55;;;;;;;;;;5052982;28;20174;-83
2021/05/20 06:08:37;;;;;;;4.28;3.97;;;;;;;;;;5053271;28;20199;-83
2021/05/20 06:11:02;;;;;;;4.40;4.00;;;;;;;;;;5056658;28;20174;-83
2021/05/20 06:13:28;;;;;;;4.60;4.30;;;;;;;;;;5056703;28;20714;-83
2021/05/20 06:15:53;;;;;;;4.32;3.92;;;;;;;;;;5056733;28;20523;-83
2021/05/20 06:18:18;;;;;;;4.78;4.47;;;;;;;;;;5056550;28;20618;-83
2021/05/20 06:20:44;;;;;;;4.53;4.22;;;;;;;;;;5056756;28;20608;-83
2021/05/20 06:23:09;;;;;;;4.68;4.25;;;;;;;;;;5055861;28;20167;-82
2021/05/20 06:25:35;;;;;;;4.72;4.22;;;;;;;;;;5057019;28;20504;-83
2021/05/20 06:28:04;;;;;;;4.20;3.88;;;;;;;;;;5056109;28;20167;-84
2021/05/20 06:30:29;;;;;;;4.18;3.88;;;;;;;;;;5055865;28;20219;-83
2021/05/20 06:32:55;;;;;;;4.40;4.10;;;;;;;;;;5056127;28;20174;-83
2021/05/20 06:35:20;;;;;;;4.20;3.90;;;;;;;;;;5055803;28;20203;-83
2021/05/20 06:37:47;;;;;;;4.45;4.15;;;;;;;;;;5056150;28;20190;-83
2021/05/20 06:40:13;;;;;;;4.53;4.22;;;;;;;;;;5056360;28;20638;-83
2021/05/20 06:42:38;;;;;;;4.32;4.10;;;;;;;;;;5054830;28;20257;-83
2021/05/20 06:45:04;;;;;;;4.15;3.95;;;;;;;;;;5056190;28;20171;-83
2021/05/20 06:47:29;;;;;;;4.28;3.97;;;;;;;;;;5056374;28;20600;-83
2021/05/20 06:49:54;;;;;;;4.22;3.92;;;;;;;;;;5055510;28;20179;-83
2021/05/20 06:52:20;;;;;;;4.75;4.35;;;;;;;;;;5056096;28;20205;-83
2021/05/20 06:54:45;;;;;;;17.13;4.70;;;;;;;;;;5055868;28;20600;-83
2021/05/20 06:57:27;;;;;;;3.97;3.67;;;;;;;;;;5056077;28;20167;-83
2021/05/20 06:59:59;;;;;;;3.83;3.53;;;;;;;;;;5055741;28;20163;-83
2021/05/20 07:02:25;;;;;;;8.20;4.13;;;;;;;;;;5055764;28;20152;-85
2021/05/20 07:04:50;;;;;;;3.10;2.90;;;;;;;;;;5055601;28;20176;-85
2021/05/20 07:07:15;;;;;;;3.90;3.60;;;;;;;;;;5054248;28;20225;-86
2021/05/20 07:09:41;;;;;;;3.60;3.40;;;;;;;;;;5055361;28;20249;-87
2021/05/20 07:12:07;;;;;;;6.72;4.03;;;;;;;;;;5055522;28;20199;-85
2021/05/20 07:14:32;;;;;;;3.97;3.67;;;;;;;;;;5070050;28;20217;-84
2021/05/20 07:16:58;;;;;;;3.88;3.58;;;;;;;;;;5054555;28;20183;-86
2021/05/20 07:19:23;;;;;;;3.72;3.47;;;;;;;;;;5055321;28;20203;-86
2021/05/20 07:21:49;;;;;;;3.63;3.33;;;;;;;;;;5054779;28;20607;-86
2021/05/20 07:24:15;;;;;;;3.53;3.22;;;;;;;;;;5055459;28;20234;-85
2021/05/20 07:26:40;;;;;;;3.88;3.50;;;;;;;;;;5055271;28;20254;-84
2021/05/20 07:29:06;;;;;;;3.40;3.20;;;;;;;;;;5055199;28;20172;-84
2021/05/20 07:31:32;;;;;;;3.30;3.10;;;;;;;;;;5056097;28;20730;-84
2021/05/20 07:33:57;;;;;;;3.55;3.25;;;;;;;;;;5055028;28;20195;-84
2021/05/20 07:36:23;;;;;;;4.65;4.28;;;;;;;;;;5054222;28;20531;-83
2021/05/20 07:38:49;;;;;;;3.67;3.38;;;;;;;;;;5054843;28;20195;-83
2021/05/20 07:41:14;;;;;;;3.40;3.10;;;;;;;;;;5054891;28;20184;-83
2021/05/20 07:43:40;;;;;;;4.20;3.22;;;;;;;;;;5053067;28;20172;-83
2021/05/20 07:46:05;;;;;;;3.60;3.20;;;;;;;;;;5053015;28;20172;-82
2021/05/20 07:48:33;;;;;;;3.10;2.90;;;;;;;;;;5052585;28;20517;-83
2021/05/20 07:51:03;;;;;;;3.45;2.90;;;;;;;;;;5052705;28;20638;-84
2021/05/20 07:53:28;;;;;;;3.20;3.00;;;;;;;;;;5052927;28;20253;-84
2021/05/20 07:55:54;;;;;;;3.30;3.10;;;;;;;;;;5052454;28;20189;-84
2021/05/20 07:58:19;;;;;;;2.90;2.80;;;;;;;;;;5052491;28;20172;-84
2021/05/20 08:00:45;;;;;;;3.20;2.90;;;;;;;;;;5052494;28;20209;-84
2021/05/20 08:08:47;;;;;;;3.47;3.28;;;;;;;;;;5054452;28;20176;-84
2021/05/20 08:11:05;;;;;;;3.83;3.50;;;;;;;;;;5055308;28;20184;-84
2021/05/20 08:13:31;;;;;;;3.70;3.47;;;;;;;;;;5054313;28;20611;-84
2021/05/20 08:15:57;;;;;;;3.15;2.95;;;;;;;;;;5054300;28;20204;-85
2021/05/20 08:18:22;;;;;;;3.53;3.22;;;;;;;;;;5052578;28;20266;-83
2021/05/20 08:20:47;;;;;;;3.63;3.42;;;;;;;;;;5054008;28;20529;-84
2021/05/20 08:23:13;;;;;;;3.72;3.42;;;;;;;;;;5054051;28;20179;-87
2021/05/20 08:25:38;;;;;;;4.80;3.60;;;;;;;;;;5053085;28;20610;-86
2021/05/20 08:28:04;;;;;;;3.83;3.60;;;;;;;;;;5052585;28;20629;-86
2021/05/20 08:30:29;;;;;;;3.53;3.20;;;;;;;;;;5053440;28;20656;-86
2021/05/20 08:32:55;;;;;;;4.70;3.70;;;;;;;;;;5052196;28;20183;-86
2021/05/20 08:35:22;;;;;;;4.75;4.00;;;;;;;;;;5053726;28;20225;-86
2021/05/20 08:37:47;;;;;;;4.30;3.90;;;;;;;;;;5053653;28;20171;-87
2021/05/20 08:40:13;;;;;;;4.30;3.90;;;;;;;;;;5054074;28;20172;-85
2021/05/20 08:42:38;;;;;;;4.72;3.70;;;;;;;;;;5053749;28;20178;-85
2021/05/20 08:45:08;;;;;;;5.50;3.45;;;;;;;;;;5053574;28;20172;-85
2021/05/20 08:47:33;;;;;;;10.02;3.80;;;;;;;;;;5053411;28;20160;-84
2021/05/20 08:49:59;;;;;;;6.70;3.53;;;;;;;;;;5053851;28;20251;-84
2021/05/20 08:52:24;;;;;;;4.97;3.03;;;;;;;;;;5053421;28;20164;-84
2021/05/20 08:54:49;;;;;;;3.40;3.20;;;;;;;;;;5053862;28;20266;-84
2021/05/20 08:57:15;;;;;;;3.33;3.00;;;;;;;;;;5052579;28;20184;-86
2021/05/20 08:59:40;;;;;;;3.20;2.87;;;;;;;;;;5053693;28;20182;-85
2021/05/20 09:02:05;;;;;;;4.07;3.70;;;;;;;;;;5053383;28;20210;-85
2021/05/20 09:04:31;;;;;;;3.90;3.50;;;;;;;;;;5069152;28;20175;-86
2021/05/20 09:07:05;;;;;;;4.07;3.60;;;;;;;;;;5053301;28;20175;-86
2021/05/20 09:09:34;;;;;;;3.53;3.03;;;;;;;;;;5053704;28;20160;-86
2021/05/20 09:12:00;;;;;;;4.07;3.57;;;;;;;;;;5053630;28;20168;-86
2021/05/20 09:14:32;;;;;;;3.87;3.30;;;;;;;;;;5053138;28;20199;-85
2021/05/20 09:17:14;;;;;;;3.70;3.40;;;;;;;;;;5053544;28;20181;-87
2021/05/20 09:19:41;;;;;;;3.43;3.13;;;;;;;;;;5053827;28;20171;-86
2021/05/20 09:22:10;;;;;;;3.70;3.40;;;;;;;;;;5053410;28;20175;-85
2021/05/20 09:25:02;;;;;;;3.10;2.90;;;;;;;;;;5053012;28;20221;-86
2021/05/20 09:27:46;;;;;;;3.23;2.93;;;;;;;;;;5051890;28;20559;-84
2021/05/20 09:30:18;;;;;;;3.17;2.97;;;;;;;;;;5053056;28;20319;-85
2021/05/20 09:32:46;;;;;;;4.50;3.53;;;;;;;;;;5053284;28;20259;-85
2021/05/20 09:35:12;;;;;;;10.80;5.70;;;;;;;;;;5053234;28;20233;-85
2021/05/20 09:37:48;;;;;;;4.93;4.30;;;;;;;;;;5053235;28;20172;-84
2021/05/20 09:40:14;;;;;;;4.50;3.30;;;;;;;;;;5053120;28;20263;-85
2021/05/20 09:42:40;;;;;;;3.57;2.80;;;;;;;;;;5053146;28;20195;-85
2021/05/20 09:45:10;;;;;;;3.30;3.00;;;;;;;;;;5055365;28;20626;-85
2021/05/20 09:47:35;;;;;;;3.13;2.90;;;;;;;;;;5057703;28;20193;-86
2021/05/20 09:50:02;;;;;;;3.17;2.87;;;;;;;;;;5056639;28;20168;-86
2021/05/20 09:52:28;;;;;;;3.17;2.97;;;;;;;;;;5056976;28;20199;-87
2021/05/20 09:54:54;;;;;;;3.30;3.00;;;;;;;;;;5056845;28;20227;-87
2021/05/20 09:57:27;;;;;;;2.90;2.70;;;;;;;;;;5072249;28;20539;-86
2021/05/20 10:00:06;;;;;;;4.77;3.00;;;;;;;;;;5055572;28;20176;-88
2021/05/20 10:02:32;;;;;;;2.73;2.63;;;;;;;;;;5059060;28;20210;-86
2021/05/20 10:04:58;;;;;;;6.93;2.90;;;;;;;;;;5056523;28;20258;-86
2021/05/20 10:07:30;;;;;;;3.10;2.90;;;;;;;;;;5072471;28;20176;-86
2021/05/20 10:09:56;;;;;;;5.33;4.00;;;;;;;;;;5056995;28;20172;-85
2021/05/20 10:12:22;;;;;;;3.47;3.17;;;;;;;;;;5056957;28;20498;-86
2021/05/20 10:14:48;;;;;;;3.00;2.80;;;;;;;;;;5056581;28;20200;-86
2021/05/20 10:17:15;;;;;;;3.17;2.93;;;;;;;;;;5056629;28;20504;-86
2021/05/20 10:19:41;;;;;;;3.40;2.97;;;;;;;;;;5052016;28;20655;-85
2021/05/20 10:22:07;;;;;;;4.07;3.67;;;;;;;;;;5053655;28;20176;-86
2021/05/20 10:24:32;;;;;;;3.40;2.50;;;;;;;;;;5055911;28;20248;-85
2021/05/20 10:26:58;;;;;;;2.90;2.70;;;;;;;;;;5056253;28;20271;-85
2021/05/20 10:29:23;;;;;;;3.33;2.83;;;;;;;;;;5055426;28;20168;-86
2021/05/20 10:31:49;;;;;;;3.70;3.00;;;;;;;;;;5056369;28;20257;-86
2021/05/20 10:34:17;;;;;;;5.03;4.30;;;;;;;;;;5055125;28;20204;-85
2021/05/20 10:37:06;;;;;;;7.27;4.83;;;;;;;;;;5055143;28;20176;-85
2021/05/20 10:39:31;;;;;;;6.77;4.10;;;;;;;;;;5055895;28;20168;-85
2021/05/20 10:41:57;;;;;;;3.87;3.10;;;;;;;;;;5055891;28;20175;-85
2021/05/20 10:44:23;;;;;;;2.67;2.47;;;;;;;;;;5055317;28;20182;-85
2021/05/20 10:46:57;;;;;;;7.30;3.67;;;;;;;;;;5054597;28;20718;-85
2021/05/20 10:49:55;;;;;;;2.80;2.60;;;;;;;;;;5053718;28;20171;-86
2021/05/20 10:52:39;;;;;;;3.80;2.80;;;;;;;;;;5019469;28;20213;-85
2021/05/20 10:55:08;;;;;;;3.53;3.03;;;;;;;;;;5054115;28;20258;-86
2021/05/20 10:58:02;;;;;;;5.73;3.60;;;;;;;;;;5053146;28;20229;-86
2021/05/20 11:00:31;;;;;;;2.90;2.70;;;;;;;;;;5044682;28;20192;-86
2021/05/20 11:02:58;;;;;;;2.80;2.60;;;;;;;;;;5053945;28;20290;-87
2021/05/20 11:05:42;;;;;;;3.50;3.20;;;;;;;;;;5054365;28;20636;-86
2021/05/20 11:08:07;;;;;;;2.73;2.63;;;;;;;;;;5055561;28;20180;-86
2021/05/20 11:10:36;;;;;;;2.80;2.60;;;;;;;;;;5055297;28;20175;-85
2021/05/20 11:13:03;;;;;;;2.87;2.60;;;;;;;;;;5055373;28;20184;-86
2021/05/20 11:15:28;;;;;;;2.97;2.47;;;;;;;;;;5055273;28;20171;-86
2021/05/20 11:17:54;;;;;;;41.90;5.60;;;;;;;;;;5054897;28;20175;-86
2021/05/20 11:20:26;;;;;;;2.67;2.50;;;;;;;;;;5055359;28;20164;-86
2021/05/20 11:23:10;;;;;;;2.90;2.60;;;;;;;;;;5054973;28;20167;-86
2021/05/20 11:25:36;;;;;;;3.50;2.90;;;;;;;;;;5055143;28;20594;-85
2021/05/20 11:28:06;;;;;;;2.67;2.53;;;;;;;;;;5054291;28;20245;-86
2021/05/20 11:30:32;;;;;;;2.53;2.33;;;;;;;;;;5054689;28;20230;-87
2021/05/20 11:32:59;;;;;;;2.40;2.30;;;;;;;;;;5070034;28;20539;-87
2021/05/20 11:37:59;;;;;;;4.67;2.83;;;;;;;;;;5052210;28;20199;-87
2021/05/20 11:40:28;;;;;;;3.33;3.03;;;;;;;;;;5040869;28;20263;-86
2021/05/20 11:42:54;;;;;;;4.07;3.20;;;;;;;;;;5040380;28;20199;-86
2021/05/20 11:45:24;;;;;;;3.53;3.23;;;;;;;;;;5054511;28;20233;-86
2021/05/20 11:47:52;;;;;;;3.43;3.13;;;;;;;;;;5054774;28;20168;-86
2021/05/20 11:50:18;;;;;;;3.10;2.90;;;;;;;;;;5054464;28;20273;-87
2021/05/20 11:52:43;;;;;;;3.17;2.90;;;;;;;;;;5054094;28;20241;-87
2021/05/20 11:55:09;;;;;;;4.23;2.80;;;;;;;;;;5054263;28;20690;-85
2021/05/20 11:57:34;;;;;;;4.00;3.17;;;;;;;;;;5054209;28;20199;-85
2021/05/20 12:00:01;;;;;;;3.60;3.30;;;;;;;;;;5054441;28;20171;-85
2021/05/20 12:02:30;;;;;;;5.37;3.90;;;;;;;;;;5054703;28;20203;-85
2021/05/20 12:05:02;;;;;;;3.77;3.47;;;;;;;;;;5053155;28;20567;-85
2021/05/20 12:07:28;;;;;;;3.83;3.47;;;;;;;;;;5053899;28;20251;-86
2021/05/20 12:09:54;;;;;;;3.67;3.37;;;;;;;;;;5054175;28;20176;-85
2021/05/20 12:12:20;;;;;;;5.23;3.53;;;;;;;;;;5054414;28;20164;-86
2021/05/20 12:14:47;;;;;;;4.00;3.70;;;;;;;;;;5054221;28;20230;-85
2021/05/20 12:17:17;;;;;;;3.43;3.13;;;;;;;;;;5054200;28;20612;-86
2021/05/20 12:19:43;;;;;;;3.63;3.30;;;;;;;;;;5054002;28;20171;-85
2021/05/20 12:22:10;;;;;;;3.30;3.10;;;;;;;;;;5054166;28;20563;-86
2021/05/20 12:24:37;;;;;;;3.33;3.13;;;;;;;;;;5054179;28;20263;-86
2021/05/20 12:27:07;;;;;;;3.20;3.00;;;;;;;;;;5053136;28;20652;-86
2021/05/20 12:29:33;;;;;;;3.20;3.00;;;;;;;;;;5052692;28;20179;-84
2021/05/20 12:31:58;;;;;;;3.07;2.83;;;;;;;;;;5054114;28;20229;-83
2021/05/20 12:34:24;;;;;;;3.00;2.80;;;;;;;;;;5053988;28;20242;-84
2021/05/20 12:36:49;;;;;;;2.83;2.63;;;;;;;;;;5053442;28;20179;-84
2021/05/20 12:39:14;;;;;;;3.23;2.50;;;;;;;;;;5053916;28;20259;-84
2021/05/20 12:41:40;;;;;;;2.77;2.57;;;;;;;;;;5054217;28;20182;-83
2021/05/20 12:44:14;;;;;;;4.17;3.30;;;;;;;;;;5053911;28;20172;-83
2021/05/20 12:46:39;;;;;;;3.30;3.00;;;;;;;;;;5052712;28;20651;-83
2021/05/20 12:49:05;;;;;;;3.00;2.60;;;;;;;;;;5053692;28;20171;-83
2021/05/20 12:51:31;;;;;;;3.80;2.90;;;;;;;;;;5053858;28;20229;-85
2021/05/20 12:54:07;;;;;;;3.10;2.60;;;;;;;;;;5053675;28;20233;-85
2021/05/20 12:56:33;;;;;;;4.73;2.50;;;;;;;;;;5053760;28;20164;-84
2021/05/20 12:59:04;;;;;;;2.90;2.57;;;;;;;;;;5053376;28;20620;-84
2021/05/20 13:01:50;;;;;;;5.13;3.20;;;;;;;;;;5053798;28;20198;-85
2021/05/20 13:04:19;;;;;;;3.10;2.30;;;;;;;;;;5053651;28;20626;-85
2021/05/20 13:06:45;;;;;;;3.13;2.70;;;;;;;;;;5053728;28;20175;-85
2021/05/20 13:09:14;;;;;;;3.00;2.57;;;;;;;;;;5053183;28;20168;-85
2021/05/20 13:11:43;;;;;;;2.97;2.73;;;;;;;;;;5053508;28;20168;-86
2021/05/20 13:14:19;;;;;;;2.30;2.20;;;;;;;;;;5053395;28;20205;-85
2021/05/20 13:17:31;;;;;;;4.67;4.27;;;;;;;;;;5052355;28;20180;-84
2021/05/20 13:22:11;;;;;;;3.33;2.50;;;;;;;;;;5058000;28;20180;-85
2021/05/20 13:24:47;;;;;;;2.90;2.70;;;;;;;;;;5057437;28;20202;-85
2021/05/20 13:27:13;;;;;;;3.40;2.97;;;;;;;;;;5057517;28;20156;-84
2021/05/20 13:29:46;;;;;;;2.60;2.40;;;;;;;;;;5056850;28;20550;-85
2021/05/20 13:32:35;;;;;;;2.30;2.20;;;;;;;;;;5057694;28;20163;-85
2021/05/20 13:34:57;;;;;;;2.53;2.40;;;;;;;;;;5055301;28;20203;-86
2021/05/20 13:37:23;;;;;;;2.07;1.87;;;;;;;;;;5057784;28;20168;-85
2021/05/20 13:39:49;;;;;;;2.90;2.70;;;;;;;;;;5058642;28;20167;-85
2021/05/20 13:42:15;;;;;;;4.13;3.73;;;;;;;;;;5057675;28;20171;-86
2021/05/20 13:44:50;;;;;;;3.43;3.23;;;;;;;;;;5057179;28;20167;-86
2021/05/20 13:47:15;;;;;;;7.33;5.53;;;;;;;;;;5057152;28;20480;-87
2021/05/20 13:49:43;;;;;;;2.53;2.33;;;;;;;;;;5056723;28;20171;-86
2021/05/20 13:52:11;;;;;;;2.37;2.27;;;;;;;;;;5056589;28;20172;-85
2021/05/20 13:54:37;;;;;;;2.47;2.17;;;;;;;;;;5056622;28;20219;-86
2021/05/20 13:57:02;;;;;;;2.20;2.00;;;;;;;;;;5055782;28;20172;-86
2021/05/20 13:59:28;;;;;;;2.20;2.10;;;;;;;;;;5057225;28;20172;-86
2021/05/20 14:01:54;;;;;;;5.20;2.00;;;;;;;;;;5056591;28;20164;-85
2021/05/20 14:04:35;;;;;;;2.00;1.90;;;;;;;;;;5056789;28;20535;-86
2021/05/20 14:07:00;;;;;;;2.03;1.93;;;;;;;;;;5056726;28;20612;-85
2021/05/20 14:09:36;;;;;;;2.60;2.40;;;;;;;;;;5056406;28;20293;-85
2021/05/20 14:12:02;;;;;;;2.40;2.30;;;;;;;;;;5056401;28;20241;-86
2021/05/20 14:14:28;;;;;;;2.80;2.40;;;;;;;;;;5055938;28;20234;-85
2021/05/20 14:16:54;;;;;;;2.70;2.33;;;;;;;;;;5054381;28;20172;-85
2021/05/20 14:19:19;;;;;;;5.83;2.53;;;;;;;;;;5053176;28;20167;-85
2021/05/20 14:21:44;;;;;;;2.80;2.60;;;;;;;;;;5052493;28;20172;-85
2021/05/20 14:24:10;;;;;;;2.77;2.60;;;;;;;;;;5055298;28;20164;-85
2021/05/20 14:26:36;;;;;;;2.73;2.53;;;;;;;;;;5056257;28;20529;-86
2021/05/20 14:29:01;;;;;;;2.50;2.30;;;;;;;;;;5056122;28;20171;-85
2021/05/20 14:31:26;;;;;;;2.27;2.17;;;;;;;;;;5056284;28;20278;-85
2021/05/20 14:33:52;;;;;;;2.60;2.50;;;;;;;;;;5055897;28;20199;-86
2021/05/20 14:36:17;;;;;;;2.10;2.00;;;;;;;;;;5055886;28;20678;-86
2021/05/20 14:38:42;;;;;;;3.97;2.63;;;;;;;;;;5055645;28;20182;-86
2021/05/20 14:41:08;;;;;;;2.50;2.30;;;;;;;;;;5055758;28;20171;-85
2021/05/20 14:43:33;;;;;;;2.50;1.97;;;;;;;;;;5056071;28;20168;-85
2021/05/20 14:45:58;;;;;;;2.50;2.30;;;;;;;;;;5055208;28;20180;-88
2021/05/20 14:48:24;;;;;;;2.60;2.40;;;;;;;;;;5056205;28;20608;-86